Time;durP1;ratioP1;P1;durP2;ratioP2;P2;SDS_P1;SDS_P2;PMS_P1;PMS_P2;Temp;Humidity;BMP_temperature;BMP_pressure;BME280_temperature;BME280_humidity;BME280_pressure;Samples;Min_cycle;Max_cycle;Signal;HPM_P1;HPM_P2
2022/04/29 00:02:52;;;;;;;6.70;6.10;;;;;;;16.21;100.00;100513.25;4215748;22;10000035;-66
2022/04/29 00:05:18;;;;;;;6.50;5.90;;;;;;;15.83;100.00;100519.97;5005921;28;20334;-65
2022/04/29 00:07:44;;;;;;;6.90;6.13;;;;;;;16.63;100.00;100583.31;5010191;28;20483;-65
2022/04/29 00:10:12;;;;;;;8.07;6.63;;;;;;;15.87;100.00;100533.47;5010820;28;20037;-65
2022/04/29 00:12:46;;;;;;;8.77;6.70;;;;;;;15.92;100.00;100547.81;4996819;28;20100;-65
2022/04/29 00:15:13;;;;;;;7.80;7.10;;;;;;;16.29;100.00;100557.38;4991177;28;20030;-65
2022/04/29 00:17:40;;;;;;;7.60;6.90;;;;;;;16.14;100.00;100530.63;4991617;28;20033;-65
2022/04/29 00:20:07;;;;;;;10.45;7.10;;;;;;;16.33;100.00;100571.75;4991343;28;20455;-65
2022/04/29 00:22:33;;;;;;;8.50;7.40;;;;;;;16.26;100.00;100576.28;4991373;28;20569;-65
2022/04/29 00:24:58;;;;;;;7.85;7.05;;;;;;;16.12;100.00;100540.09;4991490;28;20030;-65
2022/04/29 00:27:24;;;;;;;9.43;7.60;;;;;;;15.89;100.00;100476.13;4991380;28;20496;-65
2022/04/29 00:29:49;;;;;;;8.93;8.02;;;;;;;16.45;100.00;100578.94;4991096;28;20034;-65
2022/04/29 00:32:15;;;;;;;9.25;7.80;;;;;;;15.84;100.00;100523.38;4990207;28;20419;-64
2022/04/29 00:34:41;;;;;;;9.45;8.38;;;;;;;15.69;100.00;100490.66;4991306;28;20474;-65
2022/04/29 00:37:06;;;;;;;8.85;7.88;;;;;;;16.08;100.00;100542.88;4991135;28;20548;-65
2022/04/29 00:39:32;;;;;;;9.50;8.15;;;;;;;16.25;100.00;100540.44;4993397;28;20113;-65
2022/04/29 00:41:58;;;;;;;10.50;8.82;;;;;;;15.90;100.00;100502.59;5010789;28;20088;-65
2022/04/29 00:44:23;;;;;;;9.07;8.05;;;;;;;16.15;100.00;100555.38;5010638;28;20034;-65
2022/04/29 00:46:50;;;;;;;10.10;9.10;;;;;;;15.74;100.00;100486.16;5010989;28;20030;-65
2022/04/29 00:49:17;;;;;;;10.00;9.00;;;;;;;15.87;100.00;100489.88;5009171;28;20456;-65
2022/04/29 00:51:47;;;;;;;10.45;9.27;;;;;;;16.09;100.00;100524.00;5010809;28;20058;-65
2022/04/29 00:54:18;;;;;;;9.82;8.75;;;;;;;16.09;100.00;100534.28;5010750;28;20088;-65
2022/04/29 00:56:46;;;;;;;10.55;9.48;;;;;;;16.15;100.00;100537.44;5010010;28;20086;-68
2022/04/29 00:59:21;;;;;;;11.95;10.13;;;;;;;15.34;100.00;100456.16;5014605;28;20450;-66
2022/04/29 01:01:46;;;;;;;12.02;9.98;;;;;;;15.78;100.00;100518.47;5014485;28;20041;-65
2022/04/29 01:04:18;;;;;;;11.65;10.50;;;;;;;16.03;100.00;100519.97;5014657;28;20026;-65
2022/04/29 01:06:43;;;;;;;13.25;11.27;;;;;;;16.19;100.00;100538.97;5013266;28;20122;-65
2022/04/29 01:09:09;;;;;;;12.55;10.68;;;;;;;15.93;100.00;100534.06;5014201;28;20113;-66
2022/04/29 01:11:34;;;;;;;11.85;10.65;;;;;;;15.57;100.00;100481.72;5014288;28;20040;-66
2022/04/29 01:14:00;;;;;;;11.50;10.38;;;;;;;16.00;100.00;100544.94;5014498;28;20030;-66
2022/04/29 01:16:25;;;;;;;11.73;10.52;;;;;;;15.41;100.00;100512.22;5014460;28;20040;-65
2022/04/29 01:18:53;;;;;;;11.65;10.50;;;;;;;15.93;100.00;100554.59;5014493;28;20029;-65
2022/04/29 01:21:18;;;;;;;11.55;10.35;;;;;;;16.03;100.00;100539.66;5014237;28;20030;-65
2022/04/29 01:23:44;;;;;;;12.35;11.05;;;;;;;15.92;100.00;100541.84;5013995;28;20030;-66
2022/04/29 01:26:15;;;;;;;12.00;10.70;;;;;;;15.73;100.00;100544.31;5012370;28;20038;-65
2022/04/29 01:28:48;;;;;;;12.80;11.07;;;;;;;15.61;100.00;100550.75;4979728;28;20042;-65
2022/04/29 01:31:14;;;;;;;12.32;11.02;;;;;;;15.79;100.00;100545.78;4992571;28;20273;-65
2022/04/29 01:33:48;;;;;;;11.93;10.68;;;;;;;15.52;100.00;100553.69;4994499;28;20153;-65
2022/04/29 01:36:13;;;;;;;14.93;10.18;;;;;;;15.57;100.00;100497.94;4994458;28;20096;-66
2022/04/29 01:38:39;;;;;;;12.38;10.45;;;;;;;15.46;100.00;100494.13;5012337;28;20038;-65
2022/04/29 01:41:05;;;;;;;12.73;10.30;;;;;;;15.29;100.00;100481.94;5013922;28;20033;-66
2022/04/29 01:43:32;;;;;;;14.07;11.07;;;;;;;15.63;100.00;100539.63;5012693;28;20045;-65
2022/04/29 01:45:57;;;;;;;12.73;10.48;;;;;;;15.57;100.00;100531.25;5014177;28;20030;-65
2022/04/29 01:48:24;;;;;;;11.20;9.93;;;;;;;15.39;100.00;100478.13;5012153;28;20530;-66
2022/04/29 01:50:50;;;;;;;10.98;9.85;;;;;;;15.73;100.00;100520.41;5012307;28;20033;-66
2022/04/29 01:53:15;;;;;;;11.02;9.93;;;;;;;15.75;100.00;100532.25;5013367;28;20034;-65
2022/04/29 01:55:41;;;;;;;11.50;10.20;;;;;;;14.87;100.00;100434.13;5011998;28;20048;-65
2022/04/29 01:58:06;;;;;;;12.40;10.93;;;;;;;15.13;100.00;100480.06;5013896;28;20515;-65
2022/04/29 02:00:32;;;;;;;12.18;10.98;;;;;;;15.23;100.00;100520.59;5013451;28;20116;-65
2022/04/29 02:02:57;;;;;;;13.40;10.90;;;;;;;15.33;100.00;100475.81;5013565;28;20054;-68
2022/04/29 02:05:23;;;;;;;11.88;10.63;;;;;;;15.69;100.00;100516.31;5013424;28;20030;-65
2022/04/29 02:07:49;;;;;;;12.10;9.93;;;;;;;15.86;100.00;100513.88;4985810;28;20081;-65
2022/04/29 02:10:15;;;;;;;11.65;10.55;;;;;;;15.48;100.00;100510.28;4992167;28;20033;-65
2022/04/29 02:12:41;;;;;;;12.07;10.82;;;;;;;15.63;100.00;100513.06;4992535;28;20040;-65
2022/04/29 02:15:07;;;;;;;12.32;11.02;;;;;;;15.44;100.00;100524.97;4993776;28;20117;-65
2022/04/29 02:17:33;;;;;;;13.73;12.13;;;;;;;15.40;100.00;100528.50;4992728;28;20030;-66
2022/04/29 02:19:58;;;;;;;13.20;11.85;;;;;;;15.27;100.00;100529.03;4993641;28;20030;-66
2022/04/29 02:22:24;;;;;;;13.85;12.45;;;;;;;15.21;100.00;100527.53;4993291;28;20529;-65
2022/04/29 02:24:49;;;;;;;15.18;12.80;;;;;;;14.85;100.00;100492.22;4993425;28;20107;-65
2022/04/29 02:27:14;;;;;;;16.25;12.30;;;;;;;14.56;100.00;100470.25;4993501;28;20034;-65
2022/04/29 02:29:40;;;;;;;14.65;13.05;;;;;;;14.51;100.00;100431.22;4993475;28;20471;-65
2022/04/29 02:32:06;;;;;;;16.02;12.32;;;;;;;15.12;100.00;100525.31;4989929;28;20031;-65
2022/04/29 02:34:31;;;;;;;13.82;12.32;;;;;;;14.71;100.00;100465.44;4980142;28;20472;-65
2022/04/29 02:36:57;;;;;;;14.45;12.95;;;;;;;14.70;100.00;100456.06;4992998;28;20607;-65
2022/04/29 02:39:22;;;;;;;13.73;12.30;;;;;;;14.97;100.00;100482.38;4993145;28;20415;-65
2022/04/29 02:41:48;;;;;;;12.35;11.00;;;;;;;14.58;100.00;100440.31;4993218;28;20445;-65
2022/04/29 02:44:14;;;;;;;13.35;11.95;;;;;;;15.45;100.00;100542.00;4993247;28;20088;-65
2022/04/29 02:49:23;;;;;;;13.48;10.95;;;;;;;14.98;100.00;100503.66;4992754;28;20088;-65
2022/04/29 02:51:49;;;;;;;12.25;11.05;;;;;;;14.70;100.00;100488.50;4992919;28;20061;-65
2022/04/29 02:54:15;;;;;;;14.05;11.52;;;;;;;14.85;100.00;100494.78;4976790;28;20114;-65
2022/04/29 02:56:41;;;;;;;13.30;11.68;;;;;;;14.93;100.00;100496.19;4992886;28;20045;-65
2022/04/29 02:59:06;;;;;;;13.23;11.40;;;;;;;15.06;100.00;100496.53;4992909;28;20048;-65
2022/04/29 03:01:33;;;;;;;13.40;12.00;;;;;;;15.46;100.00;100548.78;4991604;28;20100;-65
2022/04/29 03:03:59;;;;;;;12.15;10.95;;;;;;;15.58;100.00;100532.09;4992461;28;20078;-65
2022/04/29 03:06:24;;;;;;;13.45;12.00;;;;;;;15.49;100.00;100564.03;4992691;28;20068;-65
2022/04/29 03:08:50;;;;;;;13.88;11.88;;;;;;;15.44;100.00;100555.72;4993030;28;20089;-65
2022/04/29 03:11:15;;;;;;;13.75;11.90;;;;;;;15.24;100.00;100549.63;4992594;28;20121;-65
2022/04/29 03:13:41;;;;;;;13.07;11.70;;;;;;;14.87;100.00;100516.88;4992423;28;20382;-65
2022/04/29 03:16:06;;;;;;;14.68;12.95;;;;;;;15.23;100.00;100569.28;4992436;28;20034;-65
2022/04/29 03:18:32;;;;;;;13.70;11.75;;;;;;;15.24;100.00;100572.69;4992175;28;20109;-66
2022/04/29 03:20:57;;;;;;;13.65;11.65;;;;;;;14.98;100.00;100537.81;4991503;28;20475;-67
2022/04/29 03:23:24;;;;;;;12.50;11.20;;;;;;;15.46;100.00;100573.59;4992101;28;20030;-66
2022/04/29 03:25:50;;;;;;;12.85;10.82;;;;;;;15.29;100.00;100574.19;4991584;28;20035;-64
2022/04/29 03:28:15;;;;;;;13.10;11.02;;;;;;;14.99;100.00;100526.69;4992208;28;20034;-63
2022/04/29 03:30:41;;;;;;;12.43;11.15;;;;;;;15.06;100.00;100548.59;4991259;28;20033;-64
2022/04/29 03:33:08;;;;;;;13.48;11.23;;;;;;;15.32;100.00;100540.78;4991748;28;20037;-64
2022/04/29 03:35:41;;;;;;;13.38;11.32;;;;;;;15.10;100.00;100539.06;4991845;28;20027;-64
2022/04/29 03:38:07;;;;;;;12.52;11.20;;;;;;;15.01;100.00;100562.47;4990678;28;20026;-66
2022/04/29 03:40:32;;;;;;;12.93;11.60;;;;;;;14.77;100.00;100516.41;4985417;28;20081;-63
2022/04/29 03:42:58;;;;;;;12.50;11.25;;;;;;;15.16;100.00;100572.97;4980755;28;20039;-64
2022/04/29 03:45:26;;;;;;;13.93;12.52;;;;;;;14.72;100.00;100523.38;4984876;28;20488;-65
2022/04/29 03:47:52;;;;;;;15.68;12.75;;;;;;;14.48;100.00;100531.13;4986074;28;20035;-67
2022/04/29 03:50:18;;;;;;;14.40;12.90;;;;;;;14.48;100.00;100526.00;4986997;28;20046;-64
2022/04/29 03:52:49;;;;;;;14.23;12.73;;;;;;;14.90;100.00;100583.34;4982393;28;20022;-63
2022/04/29 03:55:15;;;;;;;16.03;13.03;;;;;;;14.77;100.00;100523.22;4992031;28;20452;-63
2022/04/29 03:57:41;;;;;;;14.57;13.07;;;;;;;14.94;100.00;100510.63;4991838;28;20030;-63
2022/04/29 04:00:08;;;;;;;15.20;12.88;;;;;;;15.19;100.00;100554.91;4991898;28;20041;-64
2022/04/29 04:02:33;;;;;;;13.43;12.02;;;;;;;15.12;100.00;100532.16;4991504;28;20419;-63
2022/04/29 04:04:58;;;;;;;12.95;11.63;;;;;;;15.03;100.00;100529.94;4991323;28;20492;-63
2022/04/29 04:07:24;;;;;;;12.73;11.43;;;;;;;14.97;100.00;100569.44;4991708;28;20022;-64
2022/04/29 04:09:49;;;;;;;14.95;12.15;;;;;;;14.84;100.00;100529.78;4991647;28;20507;-64
2022/04/29 04:12:15;;;;;;;19.60;13.43;;;;;;;14.70;100.00;100519.22;4991322;28;20030;-64
2022/04/29 04:14:40;;;;;;;13.98;12.40;;;;;;;15.26;100.00;100576.88;4991319;28;20141;-64
2022/04/29 04:17:07;;;;;;;14.18;12.68;;;;;;;15.16;100.00;100526.88;4991495;28;20049;-65
2022/04/29 04:19:34;;;;;;;15.63;13.57;;;;;;;14.34;100.00;100489.84;4991385;28;20485;-64
2022/04/29 04:21:59;;;;;;;16.25;12.88;;;;;;;14.91;100.00;100523.56;4991541;28;20057;-64
2022/04/29 04:24:24;;;;;;;16.17;12.90;;;;;;;15.35;100.00;100578.25;4991476;28;20481;-64
2022/04/29 04:26:50;;;;;;;18.25;13.82;;;;;;;14.86;100.00;100561.28;4991430;28;20030;-64
2022/04/29 04:29:15;;;;;;;15.18;13.18;;;;;;;14.78;100.00;100533.41;4991001;28;20022;-64
2022/04/29 04:31:41;;;;;;;15.10;13.30;;;;;;;14.69;100.00;100505.59;4989687;28;20129;-64
2022/04/29 04:36:53;;;;;;;15.38;13.60;;;;;;;15.38;100.00;100535.41;4971801;28;20046;-65
2022/04/29 04:39:19;;;;;;;14.93;12.90;;;;;;;15.54;100.00;100610.00;4970515;28;20118;-65
2022/04/29 04:41:45;;;;;;;17.38;13.75;;;;;;;15.19;100.00;100598.47;4971873;28;20058;-64
2022/04/29 04:44:10;;;;;;;18.00;14.38;;;;;;;15.13;100.00;100569.69;4986154;28;20419;-67
2022/04/29 04:46:36;;;;;;;21.52;14.45;;;;;;;15.32;100.00;100598.84;4986273;28;20054;-64
2022/04/29 04:49:02;;;;;;;16.63;13.40;;;;;;;15.84;100.00;100597.72;4971667;28;20034;-64
2022/04/29 04:51:27;;;;;;;15.77;14.07;;;;;;;16.10;100.00;100608.59;4971439;28;20485;-65
2022/04/29 04:53:53;;;;;;;15.32;13.50;;;;;;;15.44;100.00;100555.72;4971284;28;20514;-65
2022/04/29 04:56:18;;;;;;;16.83;13.88;;;;;;;16.20;100.00;100598.81;4969163;28;20034;-65
2022/04/29 04:58:44;;;;;;;17.10;14.07;;;;;;;16.11;100.00;100604.31;4971429;28;20035;-65
2022/04/29 05:01:09;;;;;;;20.27;13.98;;;;;;;15.78;100.00;100532.16;4971670;28;20038;-65
2022/04/29 05:03:34;;;;;;;17.27;13.50;;;;;;;15.88;100.00;100540.28;4986134;28;20055;-65
2022/04/29 05:06:00;;;;;;;16.42;13.93;;;;;;;16.08;100.00;100564.25;4971936;28;20058;-65
2022/04/29 05:08:25;;;;;;;15.77;13.85;;;;;;;16.11;100.00;100542.75;4971060;28;20042;-66
2022/04/29 05:10:51;;;;;;;15.25;13.07;;;;;;;16.57;100.00;100536.53;4970979;28;20038;-66
2022/04/29 05:13:16;;;;;;;16.60;12.32;;;;;;;16.80;100.00;100559.44;4970749;28;20117;-66
2022/04/29 05:15:42;;;;;;;15.15;11.77;;;;;;;16.97;100.00;100614.34;4971049;28;20492;-66
2022/04/29 05:18:09;;;;;;;14.43;11.93;;;;;;;17.12;100.00;100605.09;4971255;28;20027;-66
2022/04/29 05:20:34;;;;;;;14.45;12.95;;;;;;;17.12;100.00;100543.44;4971035;28;20039;-65
2022/04/29 05:23:00;;;;;;;14.30;12.20;;;;;;;17.11;100.00;100590.63;4970988;28;20034;-66
2022/04/29 05:25:25;;;;;;;15.98;12.70;;;;;;;17.22;100.00;100604.63;4971268;28;20042;-65
2022/04/29 05:27:51;;;;;;;15.65;12.95;;;;;;;17.70;100.00;100616.16;4971089;28;20116;-65
2022/04/29 05:30:16;;;;;;;14.30;12.88;;;;;;;17.37;100.00;100520.84;4971439;28;20039;-66
2022/04/29 05:32:42;;;;;;;17.92;12.18;;;;;;;17.21;100.00;100510.44;4971503;28;20035;-65
2022/04/29 05:35:09;;;;;;;14.02;12.57;;;;;;;18.12;100.00;100606.41;4971471;28;20144;-67
2022/04/29 05:37:36;;;;;;;14.20;12.73;;;;;;;17.41;100.00;100563.47;4971429;28;20100;-67
2022/04/29 05:42:46;;;;;;;16.00;12.05;;;;;;;17.71;100.00;100602.38;4972108;28;20046;-66
2022/04/29 05:45:11;;;;;;;15.38;12.45;;;;;;;18.09;100.00;100591.09;4974687;28;20035;-66
2022/04/29 05:47:37;;;;;;;14.88;12.70;;;;;;;18.36;100.00;100570.91;4974775;28;20504;-66
2022/04/29 05:50:03;;;;;;;15.35;12.27;;;;;;;18.81;100.00;100543.63;4974467;28;20481;-66
2022/04/29 05:52:28;;;;;;;13.80;12.30;;;;;;;18.53;100.00;100602.63;4974533;28;20157;-65
2022/04/29 05:54:54;;;;;;;13.25;11.95;;;;;;;17.72;100.00;100547.50;4974661;28;20489;-65
2022/04/29 05:57:19;;;;;;;16.45;12.23;;;;;;;18.67;100.00;100619.97;4989197;28;20026;-66
2022/04/29 05:59:45;;;;;;;15.55;11.95;;;;;;;17.91;100.00;100554.22;4989454;28;20121;-64
2022/04/29 06:02:10;;;;;;;13.80;11.93;;;;;;;17.71;100.00;100553.53;4974386;28;20210;-65
2022/04/29 06:04:35;;;;;;;16.83;11.85;;;;;;;19.14;100.00;100612.34;4974698;28;20030;-66
2022/04/29 06:07:01;;;;;;;13.93;12.50;;;;;;;19.09;100.00;100547.31;4974952;28;20109;-65
2022/04/29 06:09:26;;;;;;;14.77;11.88;;;;;;;19.42;100.00;100615.16;4974119;28;20439;-65
2022/04/29 06:11:53;;;;;;;14.45;11.05;;;;;;;18.56;100.00;100571.56;4974254;28;20038;-66
2022/04/29 06:14:18;;;;;;;13.48;12.07;;;;;;;19.55;100.00;100608.44;4974217;28;20027;-66
2022/04/29 06:16:45;;;;;;;12.90;11.50;;;;;;;18.95;100.00;100603.03;4974117;28;20129;-65
2022/04/29 06:19:10;;;;;;;13.20;11.82;;;;;;;19.30;100.00;100605.47;4988864;28;20034;-66
2022/04/29 06:21:38;;;;;;;14.68;11.43;;;;;;;19.81;100.00;100602.63;4974047;28;20030;-66
2022/04/29 06:24:04;;;;;;;13.20;11.02;;;;;;;20.02;100.00;100593.69;4973804;28;20085;-66
2022/04/29 06:26:30;;;;;;;13.25;11.60;;;;;;;19.74;99.27;100552.28;4973995;28;20035;-66
2022/04/29 06:28:55;;;;;;;11.80;10.68;;;;;;;20.04;94.96;100597.03;4973844;28;20034;-65
2022/04/29 06:31:20;;;;;;;12.05;10.85;;;;;;;19.75;94.98;100549.63;4973793;28;20092;-66
2022/04/29 06:33:46;;;;;;;10.80;9.70;;;;;;;19.72;93.04;100580.78;4973967;28;20057;-65
2022/04/29 06:36:12;;;;;;;13.05;10.80;;;;;;;20.02;91.32;100567.88;4974176;28;20070;-67
2022/04/29 06:38:37;;;;;;;12.68;10.63;;;;;;;20.84;88.00;100604.41;4974089;28;20034;-65
2022/04/29 06:41:03;;;;;;;12.07;9.63;;;;;;;20.15;87.46;100537.00;4973642;28;20107;-65
2022/04/29 06:43:29;;;;;;;11.00;9.90;;;;;;;20.47;86.49;100578.16;4974127;28;20035;-66
2022/04/29 06:45:55;;;;;;;13.65;11.32;;;;;;;20.93;83.31;100612.41;4973556;28;20039;-66
2022/04/29 06:48:21;;;;;;;12.75;10.95;;;;;;;20.56;85.40;100569.84;4973972;28;20042;-65
2022/04/29 06:50:46;;;;;;;339.63;31.55;;;;;;;21.06;83.70;100617.69;4988680;28;20504;-64
2022/04/29 06:53:11;;;;;;;24.35;11.30;;;;;;;20.71;82.50;100592.19;4973476;28;20481;-65
2022/04/29 06:55:38;;;;;;;13.27;9.30;;;;;;;20.65;84.25;100617.56;4988176;28;20042;-65
2022/04/29 06:58:04;;;;;;;13.10;10.10;;;;;;;20.52;84.30;100590.81;4973544;28;20081;-65
2022/04/29 07:00:29;;;;;;;11.10;10.07;;;;;;;21.56;80.96;100582.59;4973639;28;20035;-65
2022/04/29 07:02:56;;;;;;;18.58;10.30;;;;;;;21.24;82.91;100624.34;4973212;28;20047;-66
2022/04/29 07:05:23;;;;;;;10.93;9.65;;;;;;;20.95;82.29;100625.25;4973415;28;20023;-67
2022/04/29 07:07:49;;;;;;;11.50;10.15;;;;;;;21.51;81.77;100607.91;4973113;28;20413;-67
2022/04/29 07:10:15;;;;;;;10.55;9.00;;;;;;;20.79;81.68;100596.06;4973463;28;20034;-67
2022/04/29 07:12:42;;;;;;;10.18;9.20;;;;;;;20.70;79.37;100624.13;4971993;28;20031;-67
2022/04/29 07:15:09;;;;;;;10.07;9.07;;;;;;;21.27;79.52;100593.13;4987848;28;20094;-67
2022/04/29 07:17:34;;;;;;;10.07;8.98;;;;;;;22.41;74.93;100628.84;4987756;28;20130;-67
2022/04/29 07:20:00;;;;;;;9.82;8.90;;;;;;;21.99;72.27;100629.88;4972962;28;20479;-67
2022/04/29 07:22:25;;;;;;;9.52;8.63;;;;;;;21.49;72.81;100629.66;4973067;28;20082;-68
2022/04/29 07:24:51;;;;;;;9.48;8.57;;;;;;;22.55;72.02;100626.16;4972931;28;20041;-68
2022/04/29 07:27:16;;;;;;;9.65;8.60;;;;;;;21.50;71.25;100541.56;4972822;28;20569;-68
2022/04/29 07:29:42;;;;;;;9.68;8.70;;;;;;;22.52;69.23;100635.91;4972734;28;20039;-67
2022/04/29 07:32:08;;;;;;;13.18;9.30;;;;;;;21.87;72.82;100625.50;4972657;28;20047;-68
2022/04/29 07:42:45;;;;;;;11.88;8.82;;;;;;;22.26;69.55;100627.28;4991550;28;20569;-66
2022/04/29 07:45:10;;;;;;;10.10;8.57;;;;;;;21.99;71.39;100635.06;4989486;28;20054;-66
2022/04/29 07:47:36;;;;;;;10.25;8.88;;;;;;;22.00;71.88;100644.53;4990998;28;20034;-67
2022/04/29 07:50:03;;;;;;;9.80;8.80;;;;;;;22.44;71.27;100595.78;4990706;28;20029;-69
2022/04/29 07:52:28;;;;;;;10.00;9.00;;;;;;;22.25;68.89;100584.97;4991420;28;20532;-66
2022/04/29 07:54:54;;;;;;;10.65;8.68;;;;;;;21.74;72.07;100616.00;4995331;28;20129;-68
2022/04/29 07:57:19;;;;;;;10.55;9.43;;;;;;;22.54;70.62;100628.88;4991884;28;20033;-67
2022/04/29 07:59:45;;;;;;;10.00;8.95;;;;;;;21.80;70.96;100581.94;4991657;28;20118;-66
2022/04/29 08:02:10;;;;;;;10.05;8.77;;;;;;;21.76;69.96;100622.75;4990022;28;20061;-67
2022/04/29 08:04:35;;;;;;;10.55;8.50;;;;;;;20.90;72.89;100619.53;4991780;28;20030;-67
2022/04/29 08:07:02;;;;;;;10.55;8.60;;;;;;;21.74;72.73;100598.72;4991325;28;20026;-67
2022/04/29 08:09:28;;;;;;;13.65;9.50;;;;;;;22.34;70.03;100575.78;4991464;28;20069;-68
2022/04/29 08:11:53;;;;;;;9.40;8.50;;;;;;;23.17;67.51;100581.22;4991617;28;20469;-68
2022/04/29 08:14:20;;;;;;;9.13;8.23;;;;;;;22.70;65.31;100588.84;4991486;28;20022;-68
2022/04/29 08:16:46;;;;;;;9.98;8.98;;;;;;;22.77;66.89;100615.22;4990909;28;20072;-67
2022/04/29 08:19:11;;;;;;;8.95;8.05;;;;;;;22.31;68.95;100615.66;4991471;28;20105;-67
2022/04/29 08:21:36;;;;;;;9.65;8.65;;;;;;;23.53;64.99;100566.59;4991433;28;20030;-67
2022/04/29 08:24:02;;;;;;;10.30;8.63;;;;;;;22.97;65.51;100560.19;4991180;28;20030;-67
2022/04/29 08:26:28;;;;;;;10.90;8.38;;;;;;;22.22;67.09;100517.00;4991322;28;20065;-68
2022/04/29 08:28:54;;;;;;;9.88;8.40;;;;;;;24.25;64.77;100561.19;5006605;28;20034;-66
2022/04/29 08:31:21;;;;;;;9.57;7.95;;;;;;;23.23;65.93;100585.97;5002917;28;20080;-66
2022/04/29 08:33:46;;;;;;;8.95;8.13;;;;;;;21.31;71.64;100574.69;4998864;28;20038;-66
2022/04/29 08:36:12;;;;;;;10.48;8.77;;;;;;;21.95;71.33;100550.72;4991185;28;20034;-65
2022/04/29 08:38:38;;;;;;;11.73;9.10;;;;;;;21.88;71.98;100580.56;4990973;28;20536;-66
2022/04/29 08:41:06;;;;;;;8.85;8.05;;;;;;;21.62;73.30;100552.06;4989955;28;20081;-66
2022/04/29 08:43:32;;;;;;;9.45;8.55;;;;;;;20.81;76.11;100574.38;4990983;28;20062;-66
2022/04/29 08:46:00;;;;;;;11.27;8.48;;;;;;;21.19;77.23;100579.81;4989234;28;20034;-67
2022/04/29 08:48:28;;;;;;;9.82;8.82;;;;;;;20.75;77.50;100561.81;4991627;28;20045;-66
2022/04/29 08:50:56;;;;;;;9.65;8.75;;;;;;;20.69;82.18;100550.09;4991143;28;20503;-64
2022/04/29 08:53:22;;;;;;;10.25;9.15;;;;;;;20.72;82.82;100596.44;4991088;28;20073;-64
2022/04/29 08:58:43;;;;;;;13.10;8.82;;;;;;;20.32;84.79;100573.06;4990763;28;20419;-64
2022/04/29 09:01:13;;;;;;;9.13;8.27;;;;;;;20.42;84.52;100556.09;4991318;28;20528;-64
2022/04/29 09:03:42;;;;;;;10.48;8.75;;;;;;;20.24;86.96;100580.41;4989403;28;20491;-64
2022/04/29 09:06:07;;;;;;;9.90;8.90;;;;;;;20.62;86.00;100541.03;4990055;28;20064;-64
2022/04/29 09:08:41;;;;;;;10.75;9.15;;;;;;;20.43;82.85;100532.75;4989889;28;20062;-65
2022/04/29 09:11:07;;;;;;;10.05;8.90;;;;;;;20.54;84.24;100545.03;4989927;28;20038;-64
2022/04/29 09:13:37;;;;;;;10.05;9.05;;;;;;;20.37;86.86;100595.09;4989529;28;20133;-64
2022/04/29 09:16:10;;;;;;;10.95;8.85;;;;;;;20.37;88.61;100543.44;4990802;28;20031;-65
2022/04/29 09:18:40;;;;;;;10.23;9.23;;;;;;;20.69;86.57;100595.78;4978330;28;20034;-65
2022/04/29 09:21:11;;;;;;;11.43;9.05;;;;;;;21.09;84.43;100597.66;4988029;28;20519;-66
2022/04/29 09:23:54;;;;;;;11.98;9.23;;;;;;;20.69;83.15;100552.69;4987146;28;20452;-65
2022/04/29 09:26:21;;;;;;;16.95;11.45;;;;;;;20.65;84.50;100592.56;4994360;28;20562;-66
2022/04/29 09:28:47;;;;;;;9.80;8.80;;;;;;;20.51;85.34;100584.78;4993084;28;20081;-64
2022/04/29 09:31:14;;;;;;;15.35;9.18;;;;;;;20.56;84.85;100562.09;4993616;28;20030;-66
2022/04/29 09:33:40;;;;;;;13.07;9.50;;;;;;;20.85;84.06;100552.59;4992734;28;20037;-65
2022/04/29 09:36:06;;;;;;;9.73;8.73;;;;;;;20.59;85.05;100595.50;4992214;28;20038;-65
2022/04/29 09:41:23;;;;;;;10.68;9.02;;;;;;;20.78;84.79;100543.53;4992831;28;20045;-64
2022/04/29 09:43:49;;;;;;;13.48;10.18;;;;;;;20.69;87.08;100578.53;4994348;28;20041;-65
2022/04/29 09:46:16;;;;;;;11.43;10.20;;;;;;;20.39;89.57;100579.50;4992427;28;20038;-65
2022/04/29 09:48:57;;;;;;;11.38;9.98;;;;;;;20.61;89.76;100590.25;4994005;28;20034;-65
2022/04/29 09:51:37;;;;;;;10.27;9.10;;;;;;;20.53;88.63;100584.69;4992808;28;20030;-65
2022/04/29 09:54:31;;;;;;;10.18;8.98;;;;;;;20.27;89.28;100587.97;4992823;28;20077;-65
2022/04/29 09:57:02;;;;;;;10.55;9.55;;;;;;;20.90;86.47;100593.69;4991255;28;20077;-65
2022/04/29 09:59:35;;;;;;;;;;;;;;;20.45;95.27;100592.06;4993392;28;20061;-65
2022/04/29 10:02:01;;;;;;;14.43;10.18;;;;;;;19.63;99.45;100564.97;5007524;28;19937;-66
2022/04/29 10:04:30;;;;;;;11.05;9.95;;;;;;;19.76;100.00;100522.91;4992885;28;20026;-65
2022/04/29 10:06:56;;;;;;;11.30;10.20;;;;;;;19.97;99.21;100538.91;4993604;28;20088;-65
2022/04/29 10:09:28;;;;;;;12.05;10.18;;;;;;;19.80;100.00;100568.28;5012476;28;20040;-66
2022/04/29 10:11:54;;;;;;;;;;;;;;;19.85;100.00;100576.56;5013913;28;20042;-65
2022/04/29 10:14:21;;;;;;;12.00;10.07;;;;;;;19.64;100.00;100515.03;5013210;28;19920;-65
2022/04/29 10:21:15;;;;;;;12.90;10.02;;;;;;;20.02;100.00;100573.03;5012371;28;20101;-67
2022/04/29 10:22:25;;;;;;;13.05;9.90;;;;;;;19.59;100.00;100520.44;5011990;28;20096;-66
2022/04/29 10:24:51;;;;;;;10.80;9.70;;;;;;;19.54;100.00;100522.44;5012913;28;20030;-66
2022/04/29 10:27:18;;;;;;;11.52;10.13;;;;;;;19.63;100.00;100524.50;5011707;28;20022;-67
2022/04/29 10:29:44;;;;;;;12.30;10.65;;;;;;;20.21;98.68;100529.75;4643873;28;10000050;-66
2022/04/29 10:32:10;;;;;;;14.23;10.75;;;;;;;19.98;97.17;100473.44;4989355;28;20238;-67
2022/04/29 10:34:36;;;;;;;14.15;11.05;;;;;;;20.39;99.58;100561.44;4989860;28;20088;-66
2022/04/29 10:37:10;;;;;;;13.52;11.02;;;;;;;20.12;100.00;100529.44;4989845;28;20042;-66
2022/04/29 10:39:35;;;;;;;11.25;10.00;;;;;;;19.87;100.00;100517.94;4989113;28;20490;-66
2022/04/29 10:42:11;;;;;;;12.70;11.15;;;;;;;20.19;100.00;100516.09;4988220;28;20038;-66
2022/04/29 10:45:15;;;;;;;12.23;10.65;;;;;;;20.60;100.00;100566.16;4988099;28;20145;-66
2022/04/29 10:47:41;;;;;;;15.05;10.90;;;;;;;19.95;100.00;100504.59;4950850;28;20420;-66
2022/04/29 10:50:29;;;;;;;15.07;10.38;;;;;;;20.60;100.00;100571.31;4967175;28;20034;-66
2022/04/29 10:53:06;;;;;;;11.65;10.27;;;;;;;20.63;99.31;100563.41;4965514;28;20042;-65
2022/04/29 10:55:32;;;;;;;12.88;9.95;;;;;;;20.43;94.94;100519.00;4989344;28;20782;-65
2022/04/29 10:58:02;;;;;;;11.18;10.07;;;;;;;20.54;95.81;100556.19;4989424;28;20109;-65
2022/04/29 11:00:28;;;;;;;11.83;10.43;;;;;;;20.70;94.94;100528.50;4989427;28;20497;-65
2022/04/29 11:02:54;;;;;;;13.15;10.20;;;;;;;20.38;94.17;100500.38;4995992;28;20065;-65
2022/04/29 11:05:37;;;;;;;12.55;11.25;;;;;;;20.71;94.58;100558.59;5008166;28;20030;-65
2022/04/29 11:08:13;;;;;;;11.73;10.50;;;;;;;20.60;94.41;100529.97;5007184;28;20049;-65
2022/04/29 11:10:54;;;;;;;14.77;10.73;;;;;;;21.23;91.29;100560.59;5008513;28;20405;-66
2022/04/29 11:13:23;;;;;;;9.95;9.00;;;;;;;20.60;86.97;100555.00;5008226;28;20034;-65
2022/04/29 11:15:49;;;;;;;10.27;9.23;;;;;;;20.78;85.81;100553.88;4998335;28;20037;-66
2022/04/29 11:18:22;;;;;;;10.65;9.60;;;;;;;21.02;85.90;100561.91;4988471;28;20070;-66
2022/04/29 11:20:59;;;;;;;10.05;9.05;;;;;;;20.84;83.80;100537.97;4988738;28;20113;-65
2022/04/29 11:26:14;;;;;;;10.25;9.05;;;;;;;20.74;83.38;100544.63;4988847;28;20136;-66
2022/04/29 11:28:40;;;;;;;10.93;8.82;;;;;;;20.37;85.41;100485.78;4986291;28;20084;-67
2022/04/29 11:31:08;;;;;;;10.70;9.27;;;;;;;20.89;85.74;100491.19;4988801;28;20033;-66
2022/04/29 11:33:34;;;;;;;10.15;9.10;;;;;;;20.74;85.66;100534.28;4987410;28;20560;-67
2022/04/29 11:36:01;;;;;;;10.20;9.10;;;;;;;20.76;84.75;100498.03;4988195;28;20548;-66
2022/04/29 11:38:28;;;;;;;9.68;8.68;;;;;;;20.56;84.62;100523.31;4988449;28;20034;-66